sensor_id;sensor_type;location;lat;lon;timestamp;P1;durP1;ratioP1;P2;durP2;ratioP2
7983;SDS011;4037;47.980;10.172;2023-01-01T00:02:00;16.00;;;13.10;;
7983;SDS011;4037;47.980;10.172;2023-01-01T00:04:26;16.30;;;12.00;;
7983;SDS011;4037;47.980;10.172;2023-01-01T00:06:53;16.30;;;11.43;;
7983;SDS011;4037;47.980;10.172;2023-01-01T00:09:19;13.63;;;11.63;;
7983;SDS011;4037;47.980;10.172;2023-01-01T00:12:04;14.40;;;10.37;;
7983;SDS011;4037;47.980;10.172;2023-01-01T00:14:30;13.73;;;9.50;;
7983;SDS011;4037;47.980;10.172;2023-01-01T00:16:56;13.80;;;9.77;;
7983;SDS011;4037;47.980;10.172;2023-01-01T00:19:22;13.30;;;9.87;;
7983;SDS011;4037;47.980;10.172;2023-01-01T00:21:48;12.37;;;10.03;;
7983;SDS011;4037;47.980;10.172;2023-01-01T00:24:14;15.03;;;10.93;;
7983;SDS011;4037;47.980;10.172;2023-01-01T00:26:40;15.33;;;10.43;;
7983;SDS011;4037;47.980;10.172;2023-01-01T00:29:06;12.03;;;9.47;;
7983;SDS011;4037;47.980;10.172;2023-01-01T00:31:32;12.57;;;8.53;;
7983;SDS011;4037;47.980;10.172;2023-01-01T00:33:58;10.67;;;7.97;;
7983;SDS011;4037;47.980;10.172;2023-01-01T00:36:24;11.23;;;8.73;;
7983;SDS011;4037;47.980;10.172;2023-01-01T00:38:51;11.67;;;9.30;;
7983;SDS011;4037;47.980;10.172;2023-01-01T00:41:17;13.83;;;10.57;;
7983;SDS011;4037;47.980;10.172;2023-01-01T00:43:43;11.10;;;8.80;;
7983;SDS011;4037;47.980;10.172;2023-01-01T00:46:10;11.83;;;8.60;;
7983;SDS011;4037;47.980;10.172;2023-01-01T00:48:36;10.70;;;7.53;;
7983;SDS011;4037;47.980;10.172;2023-01-01T00:51:03;10.37;;;7.37;;
7983;SDS011;4037;47.980;10.172;2023-01-01T00:53:29;10.17;;;8.10;;
7983;SDS011;4037;47.980;10.172;2023-01-01T00:55:55;10.03;;;7.50;;
7983;SDS011;4037;47.980;10.172;2023-01-01T00:58:21;9.30;;;7.27;;
7983;SDS011;4037;47.980;10.172;2023-01-01T01:00:48;9.37;;;8.00;;
7983;SDS011;4037;47.980;10.172;2023-01-01T01:03:15;8.93;;;6.57;;
7983;SDS011;4037;47.980;10.172;2023-01-01T01:06:06;8.20;;;6.80;;
7983;SDS011;4037;47.980;10.172;2023-01-01T01:08:34;8.80;;;6.10;;
7983;SDS011;4037;47.980;10.172;2023-01-01T01:11:20;7.47;;;6.60;;
7983;SDS011;4037;47.980;10.172;2023-01-01T01:13:47;8.83;;;6.60;;
7983;SDS011;4037;47.980;10.172;2023-01-01T01:16:15;8.70;;;6.03;;
7983;SDS011;4037;47.980;10.172;2023-01-01T01:18:42;8.67;;;6.23;;
7983;SDS011;4037;47.980;10.172;2023-01-01T01:21:08;9.50;;;6.20;;
7983;SDS011;4037;47.980;10.172;2023-01-01T01:23:34;8.63;;;6.47;;
7983;SDS011;4037;47.980;10.172;2023-01-01T01:26:10;6.53;;;5.43;;
7983;SDS011;4037;47.980;10.172;2023-01-01T01:28:37;6.50;;;5.80;;
7983;SDS011;4037;47.980;10.172;2023-01-01T01:31:03;6.73;;;5.57;;
7983;SDS011;4037;47.980;10.172;2023-01-01T01:33:29;7.07;;;5.10;;
7983;SDS011;4037;47.980;10.172;2023-01-01T01:35:55;8.83;;;5.90;;
7983;SDS011;4037;47.980;10.172;2023-01-01T01:38:21;7.40;;;5.50;;
7983;SDS011;4037;47.980;10.172;2023-01-01T01:40:47;6.53;;;5.43;;
7983;SDS011;4037;47.980;10.172;2023-01-01T01:43:23;5.70;;;5.10;;
7983;SDS011;4037;47.980;10.172;2023-01-01T01:45:53;6.43;;;5.13;;
7983;SDS011;4037;47.980;10.172;2023-01-01T01:48:21;7.20;;;4.70;;
7983;SDS011;4037;47.980;10.172;2023-01-01T01:50:48;5.97;;;4.50;;
7983;SDS011;4037;47.980;10.172;2023-01-01T01:55:47;7.07;;;4.93;;
7983;SDS011;4037;47.980;10.172;2023-01-01T01:58:14;5.90;;;5.10;;
7983;SDS011;4037;47.980;10.172;2023-01-01T02:00:40;5.70;;;4.70;;
7983;SDS011;4037;47.980;10.172;2023-01-01T02:03:07;7.50;;;4.93;;
7983;SDS011;4037;47.980;10.172;2023-01-01T02:05:34;6.80;;;4.87;;
7983;SDS011;4037;47.980;10.172;2023-01-01T02:08:01;7.10;;;5.67;;
7983;SDS011;4037;47.980;10.172;2023-01-01T02:10:27;6.40;;;4.97;;
7983;SDS011;4037;47.980;10.172;2023-01-01T02:12:53;5.77;;;4.83;;
7983;SDS011;4037;47.980;10.172;2023-01-01T02:15:20;6.47;;;4.90;;
7983;SDS011;4037;47.980;10.172;2023-01-01T02:17:51;6.77;;;4.50;;
7983;SDS011;4037;47.980;10.172;2023-01-01T02:28:19;5.20;;;4.70;;
7983;SDS011;4037;47.980;10.172;2023-01-01T02:30:49;5.00;;;4.13;;
7983;SDS011;4037;47.980;10.172;2023-01-01T02:33:17;5.83;;;4.93;;
7983;SDS011;4037;47.980;10.172;2023-01-01T02:35:45;5.80;;;4.37;;
7983;SDS011;4037;47.980;10.172;2023-01-01T02:38:15;5.77;;;4.53;;
7983;SDS011;4037;47.980;10.172;2023-01-01T02:40:43;5.83;;;4.53;;
7983;SDS011;4037;47.980;10.172;2023-01-01T02:43:11;6.23;;;4.33;;
7983;SDS011;4037;47.980;10.172;2023-01-01T02:45:37;5.80;;;4.57;;
7983;SDS011;4037;47.980;10.172;2023-01-01T02:48:04;5.23;;;4.23;;
7983;SDS011;4037;47.980;10.172;2023-01-01T02:50:30;6.50;;;4.40;;
7983;SDS011;4037;47.980;10.172;2023-01-01T03:01:04;7.17;;;5.37;;
7983;SDS011;4037;47.980;10.172;2023-01-01T03:06:01;8.53;;;5.60;;
7983;SDS011;4037;47.980;10.172;2023-01-01T03:11:26;11.57;;;5.97;;
7983;SDS011;4037;47.980;10.172;2023-01-01T03:13:59;9.13;;;5.97;;
7983;SDS011;4037;47.980;10.172;2023-01-01T03:16:30;8.03;;;4.70;;
7983;SDS011;4037;47.980;10.172;2023-01-01T03:21:43;4.77;;;4.20;;
7983;SDS011;4037;47.980;10.172;2023-01-01T03:24:12;5.83;;;4.97;;
7983;SDS011;4037;47.980;10.172;2023-01-01T03:26:41;7.67;;;3.83;;
7983;SDS011;4037;47.980;10.172;2023-01-01T03:29:07;5.83;;;4.47;;
7983;SDS011;4037;47.980;10.172;2023-01-01T03:31:34;5.93;;;4.07;;
7983;SDS011;4037;47.980;10.172;2023-01-01T03:34:05;5.33;;;4.40;;
7983;SDS011;4037;47.980;10.172;2023-01-01T03:36:37;5.33;;;4.37;;
7983;SDS011;4037;47.980;10.172;2023-01-01T03:39:20;5.30;;;4.07;;
7983;SDS011;4037;47.980;10.172;2023-01-01T03:46:58;5.90;;;4.30;;
7983;SDS011;4037;47.980;10.172;2023-01-01T03:49:24;5.83;;;4.13;;
7983;SDS011;4037;47.980;10.172;2023-01-01T03:52:11;5.30;;;4.37;;
7983;SDS011;4037;47.980;10.172;2023-01-01T03:59:48;6.10;;;4.50;;
7983;SDS011;4037;47.980;10.172;2023-01-01T04:02:18;5.23;;;4.10;;
7983;SDS011;4037;47.980;10.172;2023-01-01T04:04:48;6.20;;;4.40;;
7983;SDS011;4037;47.980;10.172;2023-01-01T04:07:14;7.30;;;4.07;;
7983;SDS011;4037;47.980;10.172;2023-01-01T04:09:41;5.20;;;3.97;;
7983;SDS011;4037;47.980;10.172;2023-01-01T04:12:08;5.07;;;4.00;;
7983;SDS011;4037;47.980;10.172;2023-01-01T04:14:35;5.83;;;4.47;;
7983;SDS011;4037;47.980;10.172;2023-01-01T04:17:02;6.00;;;4.60;;
7983;SDS011;4037;47.980;10.172;2023-01-01T04:19:29;5.17;;;4.63;;
7983;SDS011;4037;47.980;10.172;2023-01-01T04:21:55;8.03;;;5.10;;
7983;SDS011;4037;47.980;10.172;2023-01-01T04:24:21;5.97;;;4.70;;
7983;SDS011;4037;47.980;10.172;2023-01-01T04:26:48;5.93;;;4.87;;
7983;SDS011;4037;47.980;10.172;2023-01-01T04:29:14;6.50;;;4.27;;
7983;SDS011;4037;47.980;10.172;2023-01-01T04:31:40;5.67;;;4.70;;
7983;SDS011;4037;47.980;10.172;2023-01-01T04:34:06;7.63;;;5.30;;
7983;SDS011;4037;47.980;10.172;2023-01-01T04:36:32;4.77;;;4.20;;
7983;SDS011;4037;47.980;10.172;2023-01-01T04:38:58;6.60;;;4.97;;
7983;SDS011;4037;47.980;10.172;2023-01-01T04:41:25;6.13;;;4.77;;
7983;SDS011;4037;47.980;10.172;2023-01-01T04:43:51;9.60;;;5.23;;
7983;SDS011;4037;47.980;10.172;2023-01-01T04:46:18;5.40;;;4.27;;
7983;SDS011;4037;47.980;10.172;2023-01-01T04:48:44;5.73;;;4.10;;
7983;SDS011;4037;47.980;10.172;2023-01-01T04:51:10;6.33;;;4.70;;
7983;SDS011;4037;47.980;10.172;2023-01-01T04:53:36;6.87;;;4.23;;
7983;SDS011;4037;47.980;10.172;2023-01-01T04:56:07;5.53;;;4.40;;
7983;SDS011;4037;47.980;10.172;2023-01-01T04:58:33;5.53;;;4.30;;
7983;SDS011;4037;47.980;10.172;2023-01-01T05:01:00;6.63;;;5.23;;
7983;SDS011;4037;47.980;10.172;2023-01-01T05:03:26;6.97;;;4.70;;
7983;SDS011;4037;47.980;10.172;2023-01-01T05:06:03;6.30;;;4.17;;
7983;SDS011;4037;47.980;10.172;2023-01-01T05:08:30;5.50;;;4.23;;
7983;SDS011;4037;47.980;10.172;2023-01-01T05:11:00;5.93;;;4.53;;
7983;SDS011;4037;47.980;10.172;2023-01-01T05:13:26;6.27;;;4.60;;
7983;SDS011;4037;47.980;10.172;2023-01-01T05:15:52;5.83;;;4.70;;
7983;SDS011;4037;47.980;10.172;2023-01-01T05:18:18;5.93;;;4.47;;
7983;SDS011;4037;47.980;10.172;2023-01-01T05:20:44;5.23;;;4.03;;
7983;SDS011;4037;47.980;10.172;2023-01-01T05:23:10;5.80;;;4.70;;
7983;SDS011;4037;47.980;10.172;2023-01-01T05:25:36;5.60;;;4.40;;
7983;SDS011;4037;47.980;10.172;2023-01-01T05:28:02;6.63;;;4.83;;
7983;SDS011;4037;47.980;10.172;2023-01-01T05:30:28;5.83;;;4.40;;
7983;SDS011;4037;47.980;10.172;2023-01-01T05:32:54;4.70;;;4.10;;
7983;SDS011;4037;47.980;10.172;2023-01-01T05:35:21;5.43;;;4.60;;
7983;SDS011;4037;47.980;10.172;2023-01-01T05:37:47;5.50;;;4.57;;
7983;SDS011;4037;47.980;10.172;2023-01-01T05:40:13;7.40;;;5.50;;
7983;SDS011;4037;47.980;10.172;2023-01-01T05:42:39;5.57;;;4.03;;
7983;SDS011;4037;47.980;10.172;2023-01-01T05:45:05;6.47;;;4.50;;
7983;SDS011;4037;47.980;10.172;2023-01-01T05:47:31;6.47;;;4.87;;
7983;SDS011;4037;47.980;10.172;2023-01-01T05:49:57;6.27;;;5.07;;
7983;SDS011;4037;47.980;10.172;2023-01-01T05:52:23;7.23;;;4.97;;
7983;SDS011;4037;47.980;10.172;2023-01-01T05:54:49;7.03;;;4.87;;
7983;SDS011;4037;47.980;10.172;2023-01-01T05:57:15;6.13;;;4.93;;
7983;SDS011;4037;47.980;10.172;2023-01-01T05:59:41;7.67;;;4.60;;
7983;SDS011;4037;47.980;10.172;2023-01-01T06:02:07;7.10;;;4.50;;
7983;SDS011;4037;47.980;10.172;2023-01-01T06:04:33;6.67;;;4.90;;
7983;SDS011;4037;47.980;10.172;2023-01-01T06:06:59;6.33;;;4.40;;
7983;SDS011;4037;47.980;10.172;2023-01-01T06:09:25;6.33;;;4.77;;
7983;SDS011;4037;47.980;10.172;2023-01-01T06:11:52;5.47;;;4.23;;
7983;SDS011;4037;47.980;10.172;2023-01-01T06:14:18;5.53;;;4.37;;
7983;SDS011;4037;47.980;10.172;2023-01-01T06:16:44;7.57;;;4.53;;
7983;SDS011;4037;47.980;10.172;2023-01-01T06:19:10;6.77;;;5.00;;
7983;SDS011;4037;47.980;10.172;2023-01-01T06:21:36;5.97;;;4.17;;
7983;SDS011;4037;47.980;10.172;2023-01-01T06:24:02;5.03;;;3.60;;
7983;SDS011;4037;47.980;10.172;2023-01-01T06:26:29;5.83;;;4.70;;
7983;SDS011;4037;47.980;10.172;2023-01-01T06:28:55;6.53;;;4.27;;
7983;SDS011;4037;47.980;10.172;2023-01-01T06:31:22;4.73;;;3.77;;
7983;SDS011;4037;47.980;10.172;2023-01-01T06:33:49;5.33;;;4.10;;
7983;SDS011;4037;47.980;10.172;2023-01-01T06:36:16;8.90;;;4.57;;
7983;SDS011;4037;47.980;10.172;2023-01-01T06:38:43;5.80;;;4.33;;
7983;SDS011;4037;47.980;10.172;2023-01-01T06:41:11;6.10;;;3.87;;
7983;SDS011;4037;47.980;10.172;2023-01-01T06:43:37;6.70;;;4.87;;
7983;SDS011;4037;47.980;10.172;2023-01-01T06:46:04;4.83;;;3.70;;
7983;SDS011;4037;47.980;10.172;2023-01-01T06:48:31;4.80;;;3.90;;
7983;SDS011;4037;47.980;10.172;2023-01-01T06:51:03;6.67;;;4.03;;
7983;SDS011;4037;47.980;10.172;2023-01-01T06:53:29;4.37;;;3.70;;
7983;SDS011;4037;47.980;10.172;2023-01-01T06:55:55;5.33;;;3.97;;
7983;SDS011;4037;47.980;10.172;2023-01-01T06:58:21;5.83;;;3.80;;
7983;SDS011;4037;47.980;10.172;2023-01-01T07:00:47;4.00;;;3.60;;
7983;SDS011;4037;47.980;10.172;2023-01-01T07:03:13;4.97;;;3.43;;
7983;SDS011;4037;47.980;10.172;2023-01-01T07:05:39;4.63;;;3.43;;
7983;SDS011;4037;47.980;10.172;2023-01-01T07:08:05;5.30;;;3.87;;
7983;SDS011;4037;47.980;10.172;2023-01-01T07:10:31;4.50;;;3.30;;
7983;SDS011;4037;47.980;10.172;2023-01-01T07:12:57;4.37;;;3.30;;
7983;SDS011;4037;47.980;10.172;2023-01-01T07:15:24;5.87;;;3.20;;
7983;SDS011;4037;47.980;10.172;2023-01-01T07:17:51;4.13;;;3.17;;
7983;SDS011;4037;47.980;10.172;2023-01-01T07:20:17;3.50;;;2.87;;
7983;SDS011;4037;47.980;10.172;2023-01-01T07:22:43;3.33;;;2.93;;
7983;SDS011;4037;47.980;10.172;2023-01-01T07:25:09;3.47;;;2.57;;
7983;SDS011;4037;47.980;10.172;2023-01-01T07:27:38;3.03;;;2.60;;
7983;SDS011;4037;47.980;10.172;2023-01-01T07:30:04;3.83;;;3.17;;
7983;SDS011;4037;47.980;10.172;2023-01-01T07:32:31;4.10;;;2.73;;
7983;SDS011;4037;47.980;10.172;2023-01-01T07:34:57;4.30;;;3.10;;
7983;SDS011;4037;47.980;10.172;2023-01-01T07:37:22;3.43;;;2.67;;
7983;SDS011;4037;47.980;10.172;2023-01-01T07:39:50;2.93;;;2.60;;
7983;SDS011;4037;47.980;10.172;2023-01-01T07:42:16;3.10;;;2.80;;
7983;SDS011;4037;47.980;10.172;2023-01-01T07:44:42;2.70;;;2.50;;
7983;SDS011;4037;47.980;10.172;2023-01-01T07:47:15;4.10;;;3.50;;
7983;SDS011;4037;47.980;10.172;2023-01-01T07:49:43;3.63;;;2.87;;
7983;SDS011;4037;47.980;10.172;2023-01-01T07:52:09;2.67;;;2.33;;
7983;SDS011;4037;47.980;10.172;2023-01-01T07:54:35;3.97;;;2.47;;
7983;SDS011;4037;47.980;10.172;2023-01-01T07:57:01;4.60;;;2.57;;
7983;SDS011;4037;47.980;10.172;2023-01-01T07:59:27;5.20;;;3.33;;
7983;SDS011;4037;47.980;10.172;2023-01-01T08:01:53;4.03;;;3.03;;
7983;SDS011;4037;47.980;10.172;2023-01-01T08:04:19;3.13;;;2.70;;
7983;SDS011;4037;47.980;10.172;2023-01-01T08:06:45;3.10;;;2.67;;
7983;SDS011;4037;47.980;10.172;2023-01-01T08:09:11;4.30;;;3.33;;
7983;SDS011;4037;47.980;10.172;2023-01-01T08:11:37;4.33;;;3.90;;
7983;SDS011;4037;47.980;10.172;2023-01-01T08:14:03;3.93;;;2.47;;
7983;SDS011;4037;47.980;10.172;2023-01-01T08:16:29;6.80;;;2.67;;
7983;SDS011;4037;47.980;10.172;2023-01-01T08:18:55;3.60;;;3.20;;
7983;SDS011;4037;47.980;10.172;2023-01-01T08:21:21;3.70;;;2.93;;
7983;SDS011;4037;47.980;10.172;2023-01-01T08:23:47;3.73;;;2.97;;
7983;SDS011;4037;47.980;10.172;2023-01-01T08:26:14;3.60;;;2.47;;
7983;SDS011;4037;47.980;10.172;2023-01-01T08:28:41;2.80;;;2.57;;
7983;SDS011;4037;47.980;10.172;2023-01-01T08:31:07;2.87;;;2.57;;
7983;SDS011;4037;47.980;10.172;2023-01-01T08:33:33;4.37;;;2.70;;
7983;SDS011;4037;47.980;10.172;2023-01-01T08:35:59;5.77;;;2.50;;
7983;SDS011;4037;47.980;10.172;2023-01-01T08:38:25;3.77;;;2.80;;
7983;SDS011;4037;47.980;10.172;2023-01-01T08:40:51;5.30;;;2.73;;
7983;SDS011;4037;47.980;10.172;2023-01-01T08:43:17;2.87;;;2.20;;
7983;SDS011;4037;47.980;10.172;2023-01-01T08:45:43;3.70;;;3.20;;
7983;SDS011;4037;47.980;10.172;2023-01-01T08:48:10;5.60;;;4.40;;
7983;SDS011;4037;47.980;10.172;2023-01-01T08:50:35;7.07;;;5.30;;
7983;SDS011;4037;47.980;10.172;2023-01-01T08:53:02;6.97;;;5.17;;
7983;SDS011;4037;47.980;10.172;2023-01-01T08:55:28;8.40;;;5.37;;
7983;SDS011;4037;47.980;10.172;2023-01-01T08:57:55;9.20;;;7.63;;
7983;SDS011;4037;47.980;10.172;2023-01-01T09:00:21;11.67;;;8.43;;
7983;SDS011;4037;47.980;10.172;2023-01-01T09:02:47;30.57;;;16.27;;
7983;SDS011;4037;47.980;10.172;2023-01-01T09:05:13;21.87;;;11.67;;
7983;SDS011;4037;47.980;10.172;2023-01-01T09:07:39;11.60;;;7.53;;
7983;SDS011;4037;47.980;10.172;2023-01-01T09:10:06;7.37;;;5.67;;
7983;SDS011;4037;47.980;10.172;2023-01-01T09:12:32;10.90;;;7.13;;
7983;SDS011;4037;47.980;10.172;2023-01-01T09:14:58;3.17;;;2.67;;
7983;SDS011;4037;47.980;10.172;2023-01-01T09:17:24;5.20;;;4.13;;
7983;SDS011;4037;47.980;10.172;2023-01-01T09:19:50;13.43;;;11.20;;
7983;SDS011;4037;47.980;10.172;2023-01-01T09:22:16;25.43;;;18.27;;
7983;SDS011;4037;47.980;10.172;2023-01-01T09:24:42;6.10;;;5.50;;
7983;SDS011;4037;47.980;10.172;2023-01-01T09:27:08;13.43;;;10.23;;
7983;SDS011;4037;47.980;10.172;2023-01-01T09:29:34;10.17;;;8.20;;
7983;SDS011;4037;47.980;10.172;2023-01-01T09:32:00;11.87;;;9.60;;
7983;SDS011;4037;47.980;10.172;2023-01-01T09:34:26;5.13;;;4.60;;
7983;SDS011;4037;47.980;10.172;2023-01-01T09:36:52;3.67;;;2.87;;
7983;SDS011;4037;47.980;10.172;2023-01-01T09:39:18;2.87;;;2.40;;
7983;SDS011;4037;47.980;10.172;2023-01-01T09:42:28;4.17;;;3.27;;
7983;SDS011;4037;47.980;10.172;2023-01-01T09:44:56;2.73;;;2.53;;
7983;SDS011;4037;47.980;10.172;2023-01-01T09:47:29;4.73;;;2.30;;
7983;SDS011;4037;47.980;10.172;2023-01-01T09:49:57;2.67;;;2.13;;
7983;SDS011;4037;47.980;10.172;2023-01-01T09:52:25;2.33;;;2.00;;
7983;SDS011;4037;47.980;10.172;2023-01-01T09:54:56;4.87;;;2.60;;
7983;SDS011;4037;47.980;10.172;2023-01-01T09:57:24;3.77;;;2.90;;
7983;SDS011;4037;47.980;10.172;2023-01-01T09:59:51;5.40;;;3.00;;
7983;SDS011;4037;47.980;10.172;2023-01-01T10:07:16;4.97;;;3.00;;
7983;SDS011;4037;47.980;10.172;2023-01-01T10:12:37;2.80;;;2.60;;
7983;SDS011;4037;47.980;10.172;2023-01-01T10:18:07;3.93;;;2.20;;
7983;SDS011;4037;47.980;10.172;2023-01-01T10:20:39;2.70;;;2.47;;
7983;SDS011;4037;47.980;10.172;2023-01-01T10:25:36;3.60;;;2.67;;
7983;SDS011;4037;47.980;10.172;2023-01-01T10:28:06;3.37;;;2.53;;
7983;SDS011;4037;47.980;10.172;2023-01-01T10:30:36;2.83;;;2.20;;
7983;SDS011;4037;47.980;10.172;2023-01-01T10:33:04;3.87;;;2.27;;
7983;SDS011;4037;47.980;10.172;2023-01-01T10:35:39;6.30;;;2.23;;
7983;SDS011;4037;47.980;10.172;2023-01-01T10:38:06;3.97;;;2.30;;
7983;SDS011;4037;47.980;10.172;2023-01-01T10:40:32;2.93;;;2.40;;
7983;SDS011;4037;47.980;10.172;2023-01-01T10:42:59;2.37;;;2.10;;
7983;SDS011;4037;47.980;10.172;2023-01-01T10:45:30;3.17;;;2.27;;
7983;SDS011;4037;47.980;10.172;2023-01-01T10:55:49;2.70;;;2.37;;
7983;SDS011;4037;47.980;10.172;2023-01-01T10:58:25;2.90;;;2.33;;
7983;SDS011;4037;47.980;10.172;2023-01-01T11:00:59;2.30;;;2.10;;
7983;SDS011;4037;47.980;10.172;2023-01-01T11:03:25;2.60;;;2.10;;
7983;SDS011;4037;47.980;10.172;2023-01-01T11:05:59;2.20;;;1.90;;
7983;SDS011;4037;47.980;10.172;2023-01-01T11:08:25;3.67;;;2.43;;
7983;SDS011;4037;47.980;10.172;2023-01-01T11:10:52;3.60;;;1.90;;
7983;SDS011;4037;47.980;10.172;2023-01-01T11:13:20;2.27;;;1.93;;
7983;SDS011;4037;47.980;10.172;2023-01-01T11:15:46;2.20;;;2.00;;
7983;SDS011;4037;47.980;10.172;2023-01-01T11:18:13;3.00;;;2.00;;
7983;SDS011;4037;47.980;10.172;2023-01-01T11:20:40;2.10;;;1.80;;
7983;SDS011;4037;47.980;10.172;2023-01-01T11:23:16;2.87;;;2.50;;
7983;SDS011;4037;47.980;10.172;2023-01-01T11:25:55;5.60;;;3.90;;
7983;SDS011;4037;47.980;10.172;2023-01-01T11:28:21;4.10;;;3.17;;
7983;SDS011;4037;47.980;10.172;2023-01-01T11:31:32;5.47;;;3.77;;
7983;SDS011;4037;47.980;10.172;2023-01-01T11:33:58;2.43;;;1.97;;
7983;SDS011;4037;47.980;10.172;2023-01-01T11:36:27;3.00;;;2.50;;
7983;SDS011;4037;47.980;10.172;2023-01-01T11:41:42;2.07;;;1.87;;
7983;SDS011;4037;47.980;10.172;2023-01-01T11:44:09;2.57;;;1.70;;
7983;SDS011;4037;47.980;10.172;2023-01-01T11:46:38;2.37;;;1.73;;
7983;SDS011;4037;47.980;10.172;2023-01-01T11:49:11;2.93;;;2.10;;
7983;SDS011;4037;47.980;10.172;2023-01-01T11:51:38;3.00;;;1.97;;
7983;SDS011;4037;47.980;10.172;2023-01-01T11:54:09;5.60;;;2.70;;
7983;SDS011;4037;47.980;10.172;2023-01-01T11:56:35;2.43;;;2.13;;
7983;SDS011;4037;47.980;10.172;2023-01-01T11:59:24;2.77;;;1.90;;
7983;SDS011;4037;47.980;10.172;2023-01-01T12:01:50;2.90;;;2.60;;
7983;SDS011;4037;47.980;10.172;2023-01-01T12:04:37;2.87;;;2.20;;
7983;SDS011;4037;47.980;10.172;2023-01-01T12:07:07;4.93;;;2.90;;
7983;SDS011;4037;47.980;10.172;2023-01-01T12:09:39;5.30;;;3.80;;
7983;SDS011;4037;47.980;10.172;2023-01-01T12:12:09;5.93;;;3.03;;
7983;SDS011;4037;47.980;10.172;2023-01-01T12:17:23;2.43;;;2.10;;
7983;SDS011;4037;47.980;10.172;2023-01-01T12:20:10;2.40;;;2.20;;
7983;SDS011;4037;47.980;10.172;2023-01-01T12:22:38;3.37;;;2.00;;
7983;SDS011;4037;47.980;10.172;2023-01-01T12:25:04;2.63;;;2.03;;
7983;SDS011;4037;47.980;10.172;2023-01-01T12:40:37;3.75;;;1.70;;
7983;SDS011;4037;47.980;10.172;2023-01-01T12:48:04;1.80;;;1.45;;
7983;SDS011;4037;47.980;10.172;2023-01-01T12:58:24;2.05;;;1.50;;
7983;SDS011;4037;47.980;10.172;2023-01-01T13:00:56;2.92;;;1.85;;
7983;SDS011;4037;47.980;10.172;2023-01-01T13:03:30;3.03;;;1.40;;
7983;SDS011;4037;47.980;10.172;2023-01-01T13:05:57;1.88;;;1.30;;
7983;SDS011;4037;47.980;10.172;2023-01-01T13:08:23;1.65;;;1.48;;
7983;SDS011;4037;47.980;10.172;2023-01-01T13:10:51;2.38;;;1.45;;
7983;SDS011;4037;47.980;10.172;2023-01-01T13:13:17;1.50;;;1.40;;
7983;SDS011;4037;47.980;10.172;2023-01-01T13:15:45;2.03;;;1.60;;
7983;SDS011;4037;47.980;10.172;2023-01-01T13:20:43;2.35;;;1.45;;
7983;SDS011;4037;47.980;10.172;2023-01-01T13:28:38;2.38;;;1.17;;
7983;SDS011;4037;47.980;10.172;2023-01-01T13:31:04;3.08;;;1.50;;
7983;SDS011;4037;47.980;10.172;2023-01-01T13:33:30;2.80;;;1.52;;
7983;SDS011;4037;47.980;10.172;2023-01-01T13:41:27;2.00;;;1.20;;
7983;SDS011;4037;47.980;10.172;2023-01-01T14:01:47;1.80;;;1.55;;
7983;SDS011;4037;47.980;10.172;2023-01-01T14:04:28;2.53;;;2.30;;
7983;SDS011;4037;47.980;10.172;2023-01-01T14:06:55;4.00;;;2.90;;
7983;SDS011;4037;47.980;10.172;2023-01-01T14:09:23;4.07;;;2.90;;
7983;SDS011;4037;47.980;10.172;2023-01-01T14:11:49;2.75;;;1.98;;
7983;SDS011;4037;47.980;10.172;2023-01-01T14:14:33;2.95;;;2.20;;
7983;SDS011;4037;47.980;10.172;2023-01-01T14:17:01;2.47;;;1.98;;
7983;SDS011;4037;47.980;10.172;2023-01-01T14:19:27;3.63;;;2.83;;
7983;SDS011;4037;47.980;10.172;2023-01-01T14:21:53;2.88;;;2.10;;
7983;SDS011;4037;47.980;10.172;2023-01-01T14:24:20;5.28;;;2.88;;
7983;SDS011;4037;47.980;10.172;2023-01-01T14:26:46;3.00;;;2.22;;
7983;SDS011;4037;47.980;10.172;2023-01-01T14:29:17;3.90;;;2.88;;
7983;SDS011;4037;47.980;10.172;2023-01-01T14:31:44;3.50;;;2.47;;
7983;SDS011;4037;47.980;10.172;2023-01-01T14:36:47;4.22;;;2.70;;
7983;SDS011;4037;47.980;10.172;2023-01-01T14:39:22;3.47;;;2.55;;
7983;SDS011;4037;47.980;10.172;2023-01-01T14:41:48;3.37;;;2.17;;
7983;SDS011;4037;47.980;10.172;2023-01-01T14:44:16;3.37;;;2.53;;
7983;SDS011;4037;47.980;10.172;2023-01-01T14:46:49;4.07;;;2.77;;
7983;SDS011;4037;47.980;10.172;2023-01-01T14:49:20;3.53;;;2.73;;
7983;SDS011;4037;47.980;10.172;2023-01-01T14:51:55;3.43;;;2.40;;
7983;SDS011;4037;47.980;10.172;2023-01-01T14:54:21;3.30;;;2.50;;
7983;SDS011;4037;47.980;10.172;2023-01-01T14:56:52;6.27;;;3.63;;
7983;SDS011;4037;47.980;10.172;2023-01-01T14:59:28;4.10;;;3.10;;
7983;SDS011;4037;47.980;10.172;2023-01-01T15:02:02;4.00;;;3.23;;
7983;SDS011;4037;47.980;10.172;2023-01-01T15:04:29;5.30;;;3.93;;
7983;SDS011;4037;47.980;10.172;2023-01-01T15:06:55;6.67;;;3.00;;
7983;SDS011;4037;47.980;10.172;2023-01-01T15:09:21;4.20;;;3.07;;
7983;SDS011;4037;47.980;10.172;2023-01-01T15:11:51;3.93;;;2.73;;
7983;SDS011;4037;47.980;10.172;2023-01-01T15:14:31;4.37;;;3.30;;
7983;SDS011;4037;47.980;10.172;2023-01-01T15:19:26;8.80;;;4.77;;
7983;SDS011;4037;47.980;10.172;2023-01-01T15:21:52;8.90;;;4.90;;
7983;SDS011;4037;47.980;10.172;2023-01-01T15:24:18;8.97;;;5.30;;
7983;SDS011;4037;47.980;10.172;2023-01-01T15:26:48;7.93;;;5.07;;
7983;SDS011;4037;47.980;10.172;2023-01-01T15:29:16;7.60;;;4.83;;
7983;SDS011;4037;47.980;10.172;2023-01-01T15:31:47;6.10;;;3.73;;
7983;SDS011;4037;47.980;10.172;2023-01-01T15:34:20;8.93;;;5.60;;
7983;SDS011;4037;47.980;10.172;2023-01-01T15:36:48;10.47;;;5.30;;
7983;SDS011;4037;47.980;10.172;2023-01-01T15:39:15;7.40;;;5.50;;
7983;SDS011;4037;47.980;10.172;2023-01-01T15:41:45;7.73;;;4.60;;
7983;SDS011;4037;47.980;10.172;2023-01-01T15:44:16;7.43;;;5.53;;
7983;SDS011;4037;47.980;10.172;2023-01-01T15:46:46;7.67;;;4.50;;
7983;SDS011;4037;47.980;10.172;2023-01-01T15:51:47;8.70;;;4.87;;
7983;SDS011;4037;47.980;10.172;2023-01-01T15:54:15;11.23;;;7.37;;
7983;SDS011;4037;47.980;10.172;2023-01-01T15:56:42;12.87;;;7.93;;
7983;SDS011;4037;47.980;10.172;2023-01-01T15:59:25;10.77;;;8.53;;
7983;SDS011;4037;47.980;10.172;2023-01-01T16:02:00;10.57;;;7.10;;
7983;SDS011;4037;47.980;10.172;2023-01-01T16:04:27;8.53;;;6.03;;
7983;SDS011;4037;47.980;10.172;2023-01-01T16:06:53;9.43;;;6.20;;
7983;SDS011;4037;47.980;10.172;2023-01-01T16:09:20;11.97;;;6.63;;
7983;SDS011;4037;47.980;10.172;2023-01-01T16:11:53;9.17;;;7.43;;
7983;SDS011;4037;47.980;10.172;2023-01-01T16:14:20;7.87;;;6.67;;
7983;SDS011;4037;47.980;10.172;2023-01-01T16:16:48;7.93;;;6.20;;
7983;SDS011;4037;47.980;10.172;2023-01-01T16:19:15;8.87;;;5.77;;
7983;SDS011;4037;47.980;10.172;2023-01-01T16:21:42;9.20;;;6.67;;
7983;SDS011;4037;47.980;10.172;2023-01-01T16:24:12;10.57;;;8.57;;
7983;SDS011;4037;47.980;10.172;2023-01-01T16:26:38;10.00;;;8.80;;
7983;SDS011;4037;47.980;10.172;2023-01-01T16:29:04;13.17;;;10.00;;
7983;SDS011;4037;47.980;10.172;2023-01-01T16:31:31;13.30;;;8.50;;
7983;SDS011;4037;47.980;10.172;2023-01-01T16:33:59;11.83;;;8.33;;
7983;SDS011;4037;47.980;10.172;2023-01-01T16:36:26;10.73;;;8.17;;
7983;SDS011;4037;47.980;10.172;2023-01-01T16:38:53;8.83;;;6.30;;
7983;SDS011;4037;47.980;10.172;2023-01-01T16:41:19;9.47;;;6.30;;
7983;SDS011;4037;47.980;10.172;2023-01-01T16:43:47;7.67;;;6.30;;
7983;SDS011;4037;47.980;10.172;2023-01-01T16:46:13;10.13;;;6.93;;
7983;SDS011;4037;47.980;10.172;2023-01-01T16:48:39;13.57;;;9.90;;
7983;SDS011;4037;47.980;10.172;2023-01-01T16:51:06;13.23;;;10.07;;
7983;SDS011;4037;47.980;10.172;2023-01-01T16:53:34;11.80;;;8.97;;
7983;SDS011;4037;47.980;10.172;2023-01-01T16:56:01;12.90;;;9.33;;
7983;SDS011;4037;47.980;10.172;2023-01-01T16:58:27;12.97;;;9.20;;
7983;SDS011;4037;47.980;10.172;2023-01-01T17:00:57;11.37;;;7.73;;
7983;SDS011;4037;47.980;10.172;2023-01-01T17:03:23;8.93;;;6.97;;
7983;SDS011;4037;47.980;10.172;2023-01-01T17:05:49;8.03;;;7.03;;
7983;SDS011;4037;47.980;10.172;2023-01-01T17:08:16;11.17;;;6.90;;
7983;SDS011;4037;47.980;10.172;2023-01-01T17:10:42;9.30;;;6.80;;
7983;SDS011;4037;47.980;10.172;2023-01-01T17:13:08;11.37;;;8.47;;